Bewolking Meer informatie Parkstad Weather Satellite


Neerslagradar Meer informatie Parkstad Rain Snow Radar


Onweersbuien Meer informatie Parkstad Lighntning


24/7 Weercamera Meer informatie Parkstad Weathercam


Natuurbrandrisico
CBI






Het weer levert geen direct gevaar op in Parkstad.    Er zijn geen waarschuwingen afgegeven voor Parkstad (045)

METAR rapporten vliegvelden

   
EHBK - Beek Nederland
Gewijzigd: 25-01-2020 15:25
Mist, Bewolking  
Mist, Bewolking  
   Wind: varieert 3.7 km/h
Wind: varieert 3.7 km/h
Temperatuur: 3°C
Dauwpunt: 3°C
Vochtigheid: 100%
Barometer: 1020 hPa
Satelliet beelden: Bewolking
Zicht: 1 km
Bewolking: Bewolking
EHBK 251425Z AUTO VRB02KT 0600 R21/0750D FG VV000 03/03 Q1020 NOSIG
EHBK - Maastricht Nederland
Gewijzigd: 25-01-2020 15:25
Mist, Bewolking  
Mist, Bewolking  
   Wind: varieert 3.7 km/h
Wind: varieert 3.7 km/h
Temperatuur: 3°C
Dauwpunt: 3°C
Vochtigheid: 100%
Barometer: 1020 hPa
Satelliet beelden: Bewolking
Zicht: 1 km
Bewolking: Bewolking
EHBK 251425Z AUTO VRB02KT 0600 R21/0750D FG VV000 03/03 Q1020 NOSIG
EBLG - Liège België
Gewijzigd: 25-01-2020 15:20
Mist, Grotendeels bewolkt  
Mist, Grotendeels bewolkt  
   Wind: varieert 3.7 km/h
Wind: varieert 3.7 km/h
Temperatuur: 4°C
Dauwpunt: 3°C
Vochtigheid: 93%
Barometer: 1020 hPa
Satelliet beelden: Grotendeels bewolkt
Zicht: 1 km
Bewolking: Licht bewolkt 31 m,
Grotendeels bewolkt 61 m
EBLG 251420Z VRB02KT 0500 R22L/1000U R22R/0700N R04R/0550N FG FEW001 BKN002 04/03 Q1020 BECMG 2500 BR BKN003
EDDK - Köln/Bonn Duitsland
Gewijzigd: 25-01-2020 15:20
Bewolking  
Bewolking  
   Wind: ZO 13 km/h
Wind: ZO 13 km/h
Temperatuur: 3°C
Voelt als: -1°C
Dauwpunt: 2°C
Vochtigheid: 93%
Barometer: 1021 hPa
Satelliet beelden: Bewolking
Zicht: meer dan 10 km
Bewolking: Bewolking 183 m
EDDK 251420Z 13007KT 9999 OVC006 03/02 Q1021 NOSIG
EDDL - Düsseldorf Duitsland
Gewijzigd: 25-01-2020 15:20
Nevel, Bewolking  
Nevel, Bewolking  
   Wind: Zuiden 7.4 km/h
Wind: Zuiden 7.4 km/h
Temperatuur: 3°C
Voelt als: 1°C
Dauwpunt: 3°C
Vochtigheid: 100%
Barometer: 1021 hPa
Satelliet beelden: Bewolking
Zicht: 2 km
Bewolking: Licht bewolkt 61 m,
Bewolking 91 m
EDDL 251420Z 19004KT 140V220 1800 BR FEW002 OVC003 03/03 Q1021 BECMG 6000 OVC006
EHEH - Eindhoven Nederland
Gewijzigd: 25-01-2020 15:25
Nevel, Bewolking  
Nevel, Bewolking  
   Wind: varieert 3.7 km/h
Wind: varieert 3.7 km/h
Temperatuur: 2°C
Dauwpunt: 1°C
Vochtigheid: 93%
Barometer: 1021 hPa
Satelliet beelden: Bewolking
Zicht: 3 km
Bewolking: Bewolking 122 m
EHEH 251425Z AUTO VRB02KT 2700 R21/2600N BR OVC004 02/01 Q1021 YLO 19005KT 2500 BR OVC005 BECMG BKN003 OVC004
ELLX - Luxemburg Luxemburg
Gewijzigd: 25-01-2020 15:20
Mist, Bewolking  
Mist, Bewolking  
   Wind: OZO 5.6 km/h
Wind: OZO 5.6 km/h
Temperatuur: 3°C
Voelt als: 2°C
Dauwpunt: 3°C
Vochtigheid: 100%
Barometer: 1020 hPa
Satelliet beelden: Bewolking
Zicht: 0 km
Bewolking: Bewolking
ELLX 251420Z 11003KT 020V150 0200 R24/0200N FG VV000 03/03 Q1020 NOSIG
EGLL - London England
Gewijzigd: 25-01-2020 15:20
Bewolking  
Bewolking  
   Wind: ZZO 9.3 km/h
Wind: ZZO 9.3 km/h
Temperatuur: 7°C
Voelt als: 5°C
Dauwpunt: 6°C
Vochtigheid: 93%
Barometer: 1017 hPa
Satelliet beelden: Bewolking
Zicht: 6 km
Bewolking: Grotendeels bewolkt 183 m,
Bewolking 335 m
EGLL 251420Z AUTO 15005KT 120V190 6000 BKN006 OVC011 07/06 Q1017 TEMPO 4000 BR
EBAW - Antwerpen België
Gewijzigd: 25-01-2020 15:20
Nevel, Grotendeels bewolkt  
Nevel, Grotendeels bewolkt  
   Wind: ZO 5.6 km/h
Wind: ZO 5.6 km/h
Temperatuur: 2°C
Voelt als: 1°C
Dauwpunt: 1°C
Vochtigheid: 93%
Barometer: 1021 hPa
Satelliet beelden: Grotendeels bewolkt
Zicht: 4 km
Bewolking: Grotendeels bewolkt 122 m
EBAW 251420Z 14003KT 090V180 3500 BR BKN004 02/01 Q1021 NOSIG
EBOS - Oostende België
Gewijzigd: 25-01-2020 15:20
Nevel, Grotendeels bewolkt  
Nevel, Grotendeels bewolkt  
   Wind: ZO 13 km/h
Wind: ZO 13 km/h
Temperatuur: 1°C
Voelt als: -3°C
Dauwpunt: 0°C
Vochtigheid: 93%
Barometer: 1020 hPa
Satelliet beelden: Grotendeels bewolkt
Zicht: 1 km
Bewolking: Gedeeltelijk bewolkt 61 m,
Grotendeels bewolkt 91 m
EBOS 251420Z 13007KT 1300 R08/1300D R26/1500U BR SCT002 BKN003 01/00 Q1020 NOSIG
LEAL - La Nucia Spanje
Gewijzigd: 25-01-2020 15:30
Licht bewolkt  
Licht bewolkt  
   Wind: varieert 3.7 km/h
Wind: varieert 3.7 km/h
Temperatuur: 15°C
Dauwpunt: 8°C
Vochtigheid: 63%
Barometer: 1017 hPa
Satelliet beelden: Licht bewolkt
Zicht: meer dan 10 km
Bewolking: Licht bewolkt 518 m
LEAL 251430Z VRB02KT 9999 FEW017 15/08 Q1017 NOSIG
TNCA - Oranjestad Aruba
Gewijzigd: 25-01-2020 15:00
Gedeeltelijk bewolkt  
Gedeeltelijk bewolkt  
   Wind: Oosten 16.7 km/h
Wind: Oosten 16.7 km/h
Temperatuur: 28°C
Gevoelstemperatuur: 31°C
Dauwpunt: 22°C
Vochtigheid: 70%
Barometer: 1015 hPa
Satelliet beelden: Gedeeltelijk bewolkt
Zicht: meer dan 10 km
Bewolking: Gedeeltelijk bewolkt 671 m
TNCA 251400Z 09009KT 9999 SCT022 28/22 Q1015 NOSIG
TNCC - Willemstad Curacao
Gewijzigd: 25-01-2020 15:00
Licht bewolkt  
Licht bewolkt  
   Wind: Oosten 9.3 km/h
Wind: Oosten 9.3 km/h
Temperatuur: 28°C
Gevoelstemperatuur: 31°C
Dauwpunt: 22°C
Vochtigheid: 70%
Barometer: 1015 hPa
Satelliet beelden: Licht bewolkt
Zicht: meer dan 10 km
Bewolking: Licht bewolkt 640 m
TNCC 251400Z AUTO 08005KT 040V120 9999 FEW021 28/22 Q1015
MTPP - Port au Prince Haitië
Gewijzigd: 25-01-2020 14:51
Licht bewolkt  
Licht bewolkt  
   Wind: varieert 3.7 km/h
Wind: varieert 3.7 km/h
Temperatuur: 27°C
Gevoelstemperatuur: 28°C
Dauwpunt: 20°C
Vochtigheid: 66%
Barometer: 1016 hPa
Satelliet beelden: Licht bewolkt
Zicht: 9 km
Bewolking: Licht bewolkt 701 m
MTPP 251351Z VRB02KT 9000 FEW023 27/20 Q1016 A3001
ENVA - Trondheim Noorwegen
Gewijzigd: 25-01-2020 15:20
Wat regen mogelijk, Sneeuw, Grotendeels bewolkt  
Wat regen mogelijk, Sneeuw, Grotendeels bewolkt  
   Wind: NO 9.3 km/h
Wind: NO 9.3 km/h
Temperatuur: 1°C
Voelt als: -2°C
Dauwpunt: 0°C
Vochtigheid: 93%
Barometer: 999 hPa
Satelliet beelden: Grotendeels bewolkt
Zicht: meer dan 10 km
Bewolking: Licht bewolkt 122 m,
Gedeeltelijk bewolkt 671 m,
Grotendeels bewolkt 945 m
ENVA 251420Z 04005KT 010V080 9999 9000E -RASN FEW004 SCT022 BKN031 01/00 Q0999 TEMPO 3000 RASN BKN012 RMK WIND 670FT 14010KT
ENBO - Bodø Noorwegen
Gewijzigd: 25-01-2020 15:20
Gedeeltelijk bewolkt  
Gedeeltelijk bewolkt  
   Wind: ZZW 16.7 km/h
Wind: ZZW 16.7 km/h
Temperatuur: 1°C
Voelt als: -3°C
Dauwpunt: -2°C
Vochtigheid: 81%
Barometer: 998 hPa
Satelliet beelden: Gedeeltelijk bewolkt
Zicht: meer dan 10 km
Bewolking: Gedeeltelijk bewolkt 549 m,
Gedeeltelijk bewolkt 1524 m
ENBO 251420Z 21009KT 9999 SCT018CB SCT050 01/M02 Q0998 BECMG 10008KT TEMPO 2000 SHSN VV008
ETNG - Geilenkirchen Duitsland
Gewijzigd: 24-01-2020 19:50
Verouderd
Nevel, Bewolking  
Nevel, Bewolking  
   Wind: ZO 1.9 km/h
Wind: ZO 1.9 km/h
Temperatuur: 1°C
Dauwpunt: -1°C
Vochtigheid: 87%
Barometer: 1023 hPa
Satelliet beelden: Bewolking
Zicht: 5 km
Bewolking: Bewolking 305 m
ETNG 241850Z 13001KT 5000 BR OVC010 01/M01 Q1023
 

Script ontwikkeld door  Saratoga-weather.org Aangepast voor de template door  Weerstation Leuven

U vindt ons ook hier:

Het Weer Aktueel

WOW Nederland KNMI

Vereniging voor Weerkunde en Klimatologie

UK Met Office Weather Observation Website (WOW)

WeatherCloud

Weather Underground

Awekas

Weatherlink IP

HAMweather, WeatherForYou, PWS Weather

Citizen Weather Observer Program (CWOP)

Apparatuur in gebruik:

Hardwareleverancier
Weerhuisje

Weerstation
Vantage Pro2+ UV

Weercomputer's
alix3d2 & wl330n

Weerprogramma's
Smartbedded

Satelliet NOAA's
WRX137 & KX137

Satelliet Eumetsat
Ayecka SR1 & Triax

Bliksemdetectie
Boltek StormTracker

Webleverancier
F-Service

Weerhuisje

Vantage Pro2+ UV

alix3d2 & wl330n

Smartbedded

WRX137 & KX137

Ayecka SR1 & Triax

Boltek StormTracker

F-Service